Edgar, Nebraska
Current Conditions -  °F | °C
As of 3:35 PM on Thursday 23 Oct 2014 (Local Time) from KHJH Reporting Station
Clear Clear  
Wind Chill: 73°   Ceiling: Unl
Heat Index: 73°   Visibility: 10mi
Dew Point: 52°   Wind: 5mph
Humidity: 48%   Direction: 210°SSW
Pressure: 30.02"   Gusts: NA
Location:  40.37°N, 97.97°W
Report Text: KHJH 232035Z AUTO 21004KT 10SM CLR 23/11 A3002 RMK AO2 T02300113
Loading
Personal Weather Stations






























Interactive Weather Map
Tropical Storm Tracking
New forecast layout! Learn more

10-Day Weather Forecast

Advertisements
Track Severe Weather on mobile